Time;durP1;ratioP1;P1;durP2;ratioP2;P2;SDS_P1;SDS_P2;PMS_P1;PMS_P2;Temp;Humidity;BMP_temperature;BMP_pressure;BME280_temperature;BME280_humidity;BME280_pressure;Samples;Min_cycle;Max_cycle;Signal;HPM_P1;HPM_P2
2023/10/18 00:01:06;;;;;;;10.90;4.68;;;;;;;4.30;100.00;101480.44;6253801;28;20045;-70
2023/10/18 00:04:13;;;;;;;10.52;4.20;;;;;;;4.33;100.00;101479.56;6253900;28;20492;-70
2023/10/18 00:07:15;;;;;;;11.43;4.82;;;;;;;4.28;100.00;101483.97;6253763;28;20045;-70
2023/10/18 00:10:17;;;;;;;11.45;4.85;;;;;;;4.24;100.00;101490.97;6253400;28;20175;-71
2023/10/18 00:13:22;;;;;;;10.48;4.47;;;;;;;4.25;100.00;101492.69;6253938;28;20430;-70
2023/10/18 00:16:23;;;;;;;14.52;5.07;;;;;;;4.23;100.00;101485.78;6253632;28;20358;-71
2023/10/18 00:19:26;;;;;;;9.90;3.88;;;;;;;4.25;100.00;101486.63;6253375;28;20046;-70
2023/10/18 00:22:28;;;;;;;10.85;4.75;;;;;;;4.25;100.00;101492.69;6253304;28;20115;-70
2023/10/18 00:25:32;;;;;;;10.90;4.45;;;;;;;4.24;100.00;101490.09;6253642;28;20056;-70
2023/10/18 00:28:36;;;;;;;13.65;4.30;;;;;;;4.23;100.00;101498.81;6253120;28;20430;-71
2023/10/18 00:31:38;;;;;;;13.82;5.13;;;;;;;4.08;100.00;101494.66;6253130;28;20042;-71
2023/10/18 00:34:40;;;;;;;9.50;4.65;;;;;;;4.10;100.00;101490.31;6253025;28;20056;-71
2023/10/18 00:37:42;;;;;;;8.85;4.65;;;;;;;4.08;100.00;101492.06;6253038;28;20338;-71
2023/10/18 00:40:46;;;;;;;6.97;3.83;;;;;;;3.98;100.00;101483.53;6252981;28;20060;-70
2023/10/18 00:43:52;;;;;;;10.00;4.35;;;;;;;4.00;100.00;101484.38;6253215;28;20045;-71
2023/10/18 00:46:54;;;;;;;7.70;3.67;;;;;;;4.02;100.00;101482.63;6252277;28;20058;-70
2023/10/18 00:49:57;;;;;;;8.23;4.13;;;;;;;4.02;100.00;101476.56;6244104;28;20049;-71
2023/10/18 00:53:00;;;;;;;6.35;3.70;;;;;;;4.05;100.00;101474.78;6252620;28;20045;-70
2023/10/18 00:56:04;;;;;;;10.30;4.82;;;;;;;4.08;100.00;101472.09;6252609;28;20049;-70
2023/10/18 00:59:07;;;;;;;10.32;4.38;;;;;;;4.08;100.00;101472.09;6244287;28;20401;-70
2023/10/18 01:02:14;;;;;;;6.05;3.55;;;;;;;4.04;100.00;101465.25;6252389;28;20405;-70
2023/10/18 01:05:16;;;;;;;8.60;3.55;;;;;;;3.96;100.00;101466.25;6252739;28;20140;-70
2023/10/18 01:08:23;;;;;;;9.80;4.22;;;;;;;3.94;100.00;101461.06;6250109;28;20072;-70
2023/10/18 01:11:27;;;;;;;7.07;3.72;;;;;;;3.88;100.00;101463.75;6246950;28;20049;-72
2023/10/18 01:14:28;;;;;;;9.80;3.80;;;;;;;3.88;100.00;101462.91;6252258;28;20053;-70
2023/10/18 01:17:33;;;;;;;8.05;3.85;;;;;;;3.89;100.00;101456.81;6252416;28;20049;-70
2023/10/18 01:20:40;;;;;;;8.52;3.90;;;;;;;3.91;100.00;101461.13;6248679;28;20160;-70
2023/10/18 01:23:44;;;;;;;7.15;4.00;;;;;;;3.94;100.00;101449.78;6245198;28;20045;-70
2023/10/18 01:26:47;;;;;;;8.82;4.50;;;;;;;3.95;100.00;101446.31;6248312;28;20045;-70
2023/10/18 01:29:48;;;;;;;8.93;3.78;;;;;;;3.88;100.00;101440.34;6247720;28;20052;-70
2023/10/18 01:32:51;;;;;;;11.38;4.43;;;;;;;3.85;100.00;101435.19;6238969;28;20065;-70
2023/10/18 01:35:53;;;;;;;10.75;4.70;;;;;;;3.88;100.00;101447.28;6250338;28;20354;-70
2023/10/18 01:38:56;;;;;;;6.03;3.85;;;;;;;3.90;100.00;101454.19;6251804;28;20046;-70
2023/10/18 01:42:00;;;;;;;7.85;4.30;;;;;;;3.89;100.00;101436.88;6251252;28;20428;-70
2023/10/18 01:45:01;;;;;;;9.98;4.20;;;;;;;3.84;100.00;101443.88;6252392;28;20064;-70
2023/10/18 01:48:04;;;;;;;8.45;4.07;;;;;;;3.86;100.00;101436.94;6251474;28;20060;-70
2023/10/18 01:51:09;;;;;;;9.63;4.60;;;;;;;3.87;100.00;101430.84;6234590;28;20061;-71
2023/10/18 01:54:12;;;;;;;9.70;4.88;;;;;;;3.84;100.00;101422.22;6226967;28;20157;-72
2023/10/18 01:57:15;;;;;;;8.18;3.80;;;;;;;3.79;100.00;101417.94;6227019;28;20139;-71
2023/10/18 02:00:25;;;;;;;7.70;4.40;;;;;;;3.72;100.00;101413.69;6226509;28;20393;-71
2023/10/18 02:03:26;;;;;;;8.00;4.50;;;;;;;3.75;100.00;101400.69;6226849;28;20073;-70
2023/10/18 02:06:28;;;;;;;9.57;4.85;;;;;;;3.78;100.00;101398.03;6226809;28;20045;-71
2023/10/18 02:09:35;;;;;;;6.90;3.58;;;;;;;3.86;100.00;101389.25;6226462;28;20050;-70
2023/10/18 02:12:39;;;;;;;9.05;5.07;;;;;;;3.81;100.00;101389.31;6231355;28;20350;-70
2023/10/18 02:15:41;;;;;;;6.40;3.88;;;;;;;3.75;100.00;101402.41;6242936;28;20107;-70
2023/10/18 02:18:46;;;;;;;9.15;4.72;;;;;;;3.68;100.00;101398.19;6250768;28;20064;-70
2023/10/18 02:21:50;;;;;;;11.25;4.78;;;;;;;3.73;100.00;101388.59;6250509;28;20136;-69
2023/10/18 02:24:53;;;;;;;10.55;4.20;;;;;;;3.66;100.00;101381.75;6250141;28;20081;-70
2023/10/18 02:27:59;;;;;;;8.20;3.88;;;;;;;3.54;100.00;101378.47;6250645;28;20331;-69
2023/10/18 02:31:10;;;;;;;8.60;4.22;;;;;;;3.61;100.00;101374.03;6250405;28;20049;-70
2023/10/18 02:34:14;;;;;;;9.38;4.60;;;;;;;3.58;100.00;101374.06;6249822;28;20434;-69
2023/10/18 02:37:16;;;;;;;7.82;4.43;;;;;;;3.59;100.00;101370.59;6249583;28;20089;-69
2023/10/18 02:40:29;;;;;;;9.55;4.68;;;;;;;3.55;100.00;101380.19;6249625;28;20053;-70
2023/10/18 02:43:31;;;;;;;13.95;5.07;;;;;;;3.52;100.00;101375.03;6249394;28;20456;-71
2023/10/18 02:46:33;;;;;;;9.68;4.10;;;;;;;3.40;100.00;101369.97;6249694;28;20046;-70
2023/10/18 02:49:34;;;;;;;9.38;3.92;;;;;;;3.41;100.00;101369.13;6249054;28;20049;-71
2023/10/18 02:52:36;;;;;;;8.45;4.65;;;;;;;3.39;100.00;101368.28;6240758;28;20504;-72
2023/10/18 02:55:41;;;;;;;11.40;4.70;;;;;;;3.38;100.00;101358.75;6249322;28;20049;-69
2023/10/18 02:58:46;;;;;;;10.07;4.70;;;;;;;3.34;100.00;101362.28;6249495;28;20132;-70
2023/10/18 03:01:50;;;;;;;9.20;4.78;;;;;;;3.34;100.00;101367.47;6249043;28;20080;-70
2023/10/18 03:04:52;;;;;;;12.63;4.55;;;;;;;3.39;100.00;101363.06;6249344;28;20149;-70
2023/10/18 03:07:54;;;;;;;10.90;4.93;;;;;;;3.39;100.00;101362.22;6249648;28;20426;-70
2023/10/18 03:10:55;;;;;;;10.02;4.70;;;;;;;3.41;100.00;101360.47;6248960;28;20053;-70
2023/10/18 03:13:58;;;;;;;10.65;3.75;;;;;;;3.46;100.00;101369.06;6249137;28;20045;-70
2023/10/18 03:17:09;;;;;;;11.13;3.90;;;;;;;3.40;100.00;101362.19;6249074;28;20053;-70
2023/10/18 03:20:19;;;;;;;11.05;4.63;;;;;;;3.32;100.00;101366.66;6248885;28;20072;-70
2023/10/18 03:23:22;;;;;;;10.32;4.03;;;;;;;3.35;100.00;101364.00;6246185;28;20055;-70
2023/10/18 03:26:33;;;;;;;10.45;4.30;;;;;;;3.26;100.00;101371.91;6243178;28;20053;-70
2023/10/18 03:29:38;;;;;;;9.07;4.40;;;;;;;3.21;100.00;101373.72;6240210;28;20357;-71
2023/10/18 03:32:39;;;;;;;6.95;3.67;;;;;;;3.25;100.00;101362.41;6213456;28;1021659;-70
2023/10/18 03:35:43;;;;;;;7.95;4.45;;;;;;;3.24;100.00;101355.50;6249959;28;20060;-70
2023/10/18 03:38:51;;;;;;;9.98;4.50;;;;;;;3.26;100.00;101361.53;6250021;28;20045;-70
2023/10/18 03:41:53;;;;;;;8.75;4.25;;;;;;;3.28;100.00;101349.38;6250025;28;20050;-70
2023/10/18 03:44:57;;;;;;;7.88;4.50;;;;;;;3.29;100.00;101349.34;6254694;28;20049;-70
2023/10/18 03:47:59;;;;;;;10.70;4.47;;;;;;;3.27;100.00;101345.94;6246276;28;20349;-70
2023/10/18 03:51:01;;;;;;;12.95;4.60;;;;;;;3.24;100.00;101342.50;6254206;28;20049;-70
2023/10/18 03:54:04;;;;;;;8.00;4.38;;;;;;;3.19;100.00;101341.72;6254142;28;20437;-70
2023/10/18 03:57:06;;;;;;;15.07;5.18;;;;;;;3.15;100.00;101340.91;6254214;28;20353;-70
2023/10/18 04:00:36;;;;;;;9.93;4.60;;;;;;;3.09;100.00;101340.09;6253837;28;20349;-70
2023/10/18 04:03:39;;;;;;;8.88;4.72;;;;;;;3.12;100.00;101337.47;6254171;28;20045;-70
2023/10/18 04:06:42;;;;;;;9.07;4.80;;;;;;;3.05;100.00;101341.91;6253974;28;20327;-69
2023/10/18 04:09:47;;;;;;;7.90;4.05;;;;;;;2.97;100.00;101339.41;6253887;28;20108;-69
2023/10/18 04:12:50;;;;;;;9.75;4.80;;;;;;;3.02;100.00;101334.13;6245701;28;20045;-70
2023/10/18 04:16:00;;;;;;;9.48;4.80;;;;;;;3.07;100.00;101324.56;6253922;28;20053;-70
2023/10/18 04:19:02;;;;;;;11.52;4.53;;;;;;;3.12;100.00;101322.75;6253703;28;20045;-70
2023/10/18 04:22:08;;;;;;;9.98;3.92;;;;;;;3.19;100.00;101324.41;6245834;28;20050;-70
2023/10/18 04:25:14;;;;;;;9.13;4.40;;;;;;;3.22;100.00;101321.75;6229119;28;20056;-69
2023/10/18 04:28:15;;;;;;;13.45;4.40;;;;;;;3.19;100.00;101319.22;6229304;28;20144;-69
2023/10/18 04:31:21;;;;;;;10.15;4.10;;;;;;;3.15;100.00;101314.06;6228662;28;20046;-69
2023/10/18 04:34:24;;;;;;;9.02;4.55;;;;;;;3.14;100.00;101310.63;6228801;28;20053;-69
2023/10/18 04:37:26;;;;;;;13.48;4.32;;;;;;;3.05;100.00;101301.22;6228803;28;20057;-71
2023/10/18 04:40:28;;;;;;;10.20;4.82;;;;;;;2.99;100.00;101303.88;6228649;28;20115;-70
2023/10/18 04:43:32;;;;;;;8.57;4.47;;;;;;;2.93;100.00;101295.31;6228700;28;20050;-70
2023/10/18 04:46:36;;;;;;;7.38;3.92;;;;;;;2.91;100.00;101290.16;6228761;28;20089;-71
2023/10/18 04:49:38;;;;;;;8.40;3.85;;;;;;;2.90;100.00;101288.41;6228475;28;20042;-70
2023/10/18 04:52:42;;;;;;;7.95;4.82;;;;;;;2.88;100.00;101284.16;6228105;28;20401;-70
2023/10/18 04:55:46;;;;;;;7.15;3.72;;;;;;;2.82;100.00;101279.91;6227688;28;20054;-70
2023/10/18 04:58:46;;;;;;;10.57;4.40;;;;;;;2.86;100.00;101270.31;6228225;28;20437;-70
2023/10/18 05:01:56;;;;;;;8.20;4.28;;;;;;;2.88;100.00;101265.97;6228203;28;20046;-69
2023/10/18 05:04:57;;;;;;;7.55;4.25;;;;;;;2.87;100.00;101267.72;6228252;28;20449;-70
2023/10/18 05:08:00;;;;;;;11.02;4.93;;;;;;;2.83;100.00;101268.63;6228294;28;20053;-69
2023/10/18 05:14:35;;;;;;;9.32;4.03;;;;;;;2.80;100.00;101266.91;6227695;28;20061;-69
2023/10/18 05:17:42;;;;;;;8.50;3.92;;;;;;;2.79;100.00;101273.00;6227871;28;20057;-69
2023/10/18 05:20:55;;;;;;;7.72;4.20;;;;;;;2.85;100.00;101272.06;6227746;28;20045;-72
2023/10/18 05:23:56;;;;;;;11.45;5.60;;;;;;;2.84;100.00;101277.28;6246113;28;20049;-71
2023/10/18 05:26:57;;;;;;;12.93;5.90;;;;;;;2.82;100.00;101271.22;6243831;28;20049;-71
2023/10/18 05:29:59;;;;;;;11.02;4.82;;;;;;;2.80;100.00;101259.13;6251883;28;20430;-70
2023/10/18 05:33:03;;;;;;;9.20;4.50;;;;;;;2.83;100.00;101253.06;6251845;28;20057;-70
2023/10/18 05:36:11;;;;;;;12.07;5.78;;;;;;;2.88;100.00;101247.81;6243703;28;20060;-69
2023/10/18 05:39:48;;;;;;;12.97;5.47;;;;;;;2.93;100.00;101243.41;6251994;28;20049;-71
2023/10/18 05:42:49;;;;;;;13.27;6.22;;;;;;;2.94;100.00;101247.72;6251524;28;20322;-71
2023/10/18 05:45:55;;;;;;;12.27;4.85;;;;;;;2.85;100.00;101246.09;6252043;28;20049;-69
2023/10/18 05:49:00;;;;;;;9.40;4.88;;;;;;;2.87;100.00;101233.13;6251507;28;20053;-70
2023/10/18 05:52:16;;;;;;;11.98;5.70;;;;;;;2.88;100.00;101235.69;6249946;28;20346;-71
2023/10/18 05:55:17;;;;;;;21.95;7.05;;;;;;;2.92;100.00;101228.72;6245628;28;20050;-70
2023/10/18 05:58:25;;;;;;;11.02;5.65;;;;;;;2.93;100.00;101230.41;6250018;28;20053;-71
2023/10/18 06:01:27;;;;;;;8.73;5.25;;;;;;;2.86;100.00;101229.66;6242800;28;20124;-70
2023/10/18 06:04:37;;;;;;;13.70;5.10;;;;;;;2.89;100.00;101234.78;6245576;28;20045;-70
2023/10/18 06:07:39;;;;;;;12.45;4.78;;;;;;;2.90;100.00;101227.88;6251205;28;20188;-70
2023/10/18 06:10:41;;;;;;;12.13;5.47;;;;;;;2.94;100.00;101225.19;6247060;28;20068;-70
2023/10/18 06:13:44;;;;;;;9.07;4.72;;;;;;;2.97;100.00;101219.13;6247453;28;20056;-70
2023/10/18 06:16:51;;;;;;;9.77;5.00;;;;;;;3.00;100.00;101219.94;6251204;28;20049;-70
2023/10/18 06:19:56;;;;;;;8.38;4.72;;;;;;;3.04;100.00;101213.81;6244769;28;20068;-71
2023/10/18 06:23:28;;;;;;;9.50;5.18;;;;;;;3.10;100.00;101212.00;6249282;28;20050;-71
2023/10/18 06:26:30;;;;;;;10.07;4.88;;;;;;;3.09;100.00;101213.75;6237229;28;20056;-71
2023/10/18 06:29:35;;;;;;;13.10;6.07;;;;;;;3.09;100.00;101205.09;6248916;28;20045;-71
2023/10/18 06:32:40;;;;;;;10.35;4.70;;;;;;;3.05;100.00;101207.75;6243478;28;20049;-71
2023/10/18 06:35:45;;;;;;;9.15;4.68;;;;;;;3.11;100.00;101203.34;6242750;28;20060;-70
2023/10/18 06:38:46;;;;;;;10.00;4.82;;;;;;;3.14;100.00;101208.50;6250607;28;20056;-70
2023/10/18 06:41:48;;;;;;;12.95;5.18;;;;;;;3.20;100.00;101209.25;6250488;28;20041;-71
2023/10/18 06:44:50;;;;;;;10.77;4.95;;;;;;;3.27;100.00;101210.00;6242303;28;20053;-70
2023/10/18 06:47:54;;;;;;;10.35;5.13;;;;;;;3.25;100.00;101203.97;6249921;28;20058;-71
2023/10/18 06:50:57;;;;;;;16.73;5.68;;;;;;;3.30;100.00;101200.41;6238903;28;20046;-69
2023/10/18 06:53:59;;;;;;;8.20;4.55;;;;;;;3.38;100.00;101194.25;6235126;28;20045;-70
2023/10/18 06:57:09;;;;;;;11.52;5.32;;;;;;;3.45;100.00;101204.53;6240618;28;20049;-70
2023/10/18 07:00:12;;;;;;;9.40;4.75;;;;;;;3.46;100.00;101208.84;6245279;28;20046;-71
2023/10/18 07:03:17;;;;;;;13.10;4.75;;;;;;;3.50;100.00;101210.50;6245669;28;20392;-70
2023/10/18 07:06:23;;;;;;;11.15;5.32;;;;;;;3.61;100.00;101196.47;6242150;28;20053;-70
2023/10/18 07:09:31;;;;;;;10.55;5.13;;;;;;;3.67;100.00;101206.75;6250718;28;20057;-72
2023/10/18 07:12:44;;;;;;;12.18;5.93;;;;;;;3.76;100.00;101202.22;6242007;28;20319;-70
2023/10/18 07:15:45;;;;;;;11.90;5.22;;;;;;;3.83;100.00;101205.59;6240787;28;20057;-71
2023/10/18 07:19:03;;;;;;;12.52;5.93;;;;;;;3.84;100.00;101199.50;6256869;28;20045;-71
2023/10/18 07:22:06;;;;;;;29.60;6.45;;;;;;;3.85;100.00;101195.16;6243616;28;20346;-70
2023/10/18 07:25:09;;;;;;;10.63;5.25;;;;;;;3.90;100.00;101199.38;6243069;28;20136;-71
2023/10/18 07:28:10;;;;;;;11.40;5.22;;;;;;;3.91;100.00;101190.72;6247190;28;20124;-71
2023/10/18 07:31:12;;;;;;;11.55;5.50;;;;;;;3.97;100.00;101182.78;6245825;28;20041;-71
2023/10/18 07:34:18;;;;;;;16.00;7.03;;;;;;;4.00;100.00;101185.34;6230195;28;20050;-70
2023/10/18 07:37:31;;;;;;;13.93;5.82;;;;;;;4.07;100.00;101184.31;6233150;28;20050;-70
2023/10/18 07:40:36;;;;;;;13.55;6.50;;;;;;;4.07;100.00;101184.31;6243176;28;20342;-71
2023/10/18 07:43:37;;;;;;;16.83;7.95;;;;;;;4.04;100.00;101176.59;6246009;28;20050;-70
2023/10/18 07:46:40;;;;;;;16.20;7.57;;;;;;;4.12;100.00;101176.44;6249773;28;20056;-70
2023/10/18 07:49:42;;;;;;;18.65;6.75;;;;;;;4.15;100.00;101170.31;6247733;28;20462;-71
2023/10/18 07:52:45;;;;;;;14.27;6.68;;;;;;;4.19;100.00;101170.22;6251954;28;20409;-71
2023/10/18 07:55:48;;;;;;;11.02;5.85;;;;;;;4.25;100.00;101161.44;6245978;28;20183;-70
2023/10/18 07:58:53;;;;;;;15.60;7.13;;;;;;;4.24;100.00;101155.38;6247628;28;20049;-71
2023/10/18 08:02:09;;;;;;;12.93;7.40;;;;;;;4.24;100.00;101154.53;6250439;28;20053;-72
2023/10/18 08:05:11;;;;;;;14.63;6.82;;;;;;;4.27;100.00;101151.84;6249415;28;20041;-73
2023/10/18 08:08:14;;;;;;;16.10;6.30;;;;;;;4.29;100.00;101148.34;6242299;28;20460;-73
2023/10/18 08:11:15;;;;;;;14.38;6.15;;;;;;;4.38;100.00;101151.63;6247257;28;20049;-72
2023/10/18 08:14:24;;;;;;;13.70;6.70;;;;;;;4.42;100.00;101143.72;6246330;28;20057;-73
2023/10/18 08:17:42;;;;;;;10.95;5.80;;;;;;;4.49;100.00;101136.63;6254021;28;20061;-72
2023/10/18 08:20:56;;;;;;;14.00;5.83;;;;;;;4.60;100.00;101136.41;6244094;28;20050;-72
2023/10/18 08:24:07;;;;;;;12.15;5.10;;;;;;;4.66;100.00;101139.72;6247826;28;20146;-72
2023/10/18 08:27:10;;;;;;;11.40;6.05;;;;;;;4.70;100.00;101125.75;6244866;28;20045;-72
2023/10/18 08:30:22;;;;;;;11.13;5.72;;;;;;;4.78;100.00;101136.00;6249681;28;20048;-72
2023/10/18 08:33:24;;;;;;;14.55;6.13;;;;;;;4.87;100.00;101129.72;6245645;28;20072;-72
2023/10/18 08:36:31;;;;;;;13.48;6.47;;;;;;;4.92;100.00;101109.63;6249312;28;20055;-72
2023/10/18 08:39:39;;;;;;;14.55;6.43;;;;;;;5.02;100.00;101117.16;6246724;28;20053;-72
2023/10/18 08:42:45;;;;;;;18.35;6.88;;;;;;;5.10;100.00;101103.97;6246871;28;20054;-72
2023/10/18 08:45:47;;;;;;;13.85;6.38;;;;;;;5.19;100.00;101108.09;6244890;28;20107;-73
2023/10/18 08:48:50;;;;;;;17.25;7.38;;;;;;;5.30;100.00;101103.44;6249863;28;20060;-73
2023/10/18 08:52:04;;;;;;;17.02;7.53;;;;;;;5.39;100.00;101099.75;6244843;28;20042;-72
2023/10/18 08:55:22;;;;;;;14.38;6.43;;;;;;;5.46;100.00;101096.94;6240663;28;20600;-72
2023/10/18 08:58:28;;;;;;;15.57;7.20;;;;;;;5.55;100.00;101096.72;6244520;28;20057;-73
2023/10/18 09:01:34;;;;;;;17.50;7.45;;;;;;;5.60;100.00;101088.75;6245760;28;20132;-73
2023/10/18 09:04:35;;;;;;;18.52;7.72;;;;;;;5.72;100.00;101088.44;6244182;28;20053;-72
2023/10/18 09:07:46;;;;;;;14.55;7.55;;;;;;;5.81;100.00;101085.56;6249240;28;20385;-74
2023/10/18 09:10:54;;;;;;;14.55;6.82;;;;;;;5.90;100.00;101083.56;6248790;28;20056;-73
2023/10/18 09:14:07;;;;;;;18.13;8.27;;;;;;;5.99;100.00;101076.38;6252672;28;20060;-71
2023/10/18 09:17:10;;;;;;;18.85;7.40;;;;;;;6.07;100.00;101076.16;6252433;28;20056;-72
2023/10/18 09:20:15;;;;;;;17.98;7.80;;;;;;;6.13;100.00;101072.50;6252289;28;20073;-72
2023/10/18 09:23:20;;;;;;;15.77;7.70;;;;;;;6.16;100.00;101073.25;6251253;28;20188;-72
2023/10/18 09:26:27;;;;;;;17.45;7.00;;;;;;;6.26;100.00;101068.63;6245489;28;20053;-71
2023/10/18 09:29:29;;;;;;;17.90;7.75;;;;;;;6.35;100.00;101063.97;6251540;28;20050;-72
2023/10/18 09:32:35;;;;;;;25.88;8.18;;;;;;;6.42;100.00;101062.03;6245836;28;20464;-72
2023/10/18 09:35:36;;;;;;;16.13;7.57;;;;;;;6.49;100.00;101062.69;6243709;28;20184;-71
2023/10/18 09:38:39;;;;;;;23.30;7.68;;;;;;;6.64;100.00;101058.75;6243845;28;20054;-73
2023/10/18 09:41:42;;;;;;;21.30;7.68;;;;;;;6.74;100.00;101047.97;6246617;28;20049;-73
2023/10/18 09:44:44;;;;;;;14.95;6.32;;;;;;;6.88;100.00;101057.09;6246028;28;20476;-72
2023/10/18 09:47:46;;;;;;;24.15;8.00;;;;;;;6.97;100.00;101056.81;6248343;28;20048;-73
2023/10/18 09:50:47;;;;;;;19.60;7.60;;;;;;;7.05;100.00;101050.41;6251138;28;20131;-72
2023/10/18 09:53:50;;;;;;;17.80;7.90;;;;;;;7.11;100.00;101041.50;6253324;28;20045;-73
2023/10/18 09:56:55;;;;;;;14.00;6.47;;;;;;;7.20;100.00;101042.94;6251905;28;20053;-73
2023/10/18 09:59:58;;;;;;;21.67;7.80;;;;;;;7.32;100.00;101032.94;6247431;28;20377;-73
2023/10/18 10:03:08;;;;;;;16.30;6.22;;;;;;;7.40;100.00;101023.94;6247907;28;20184;-72
2023/10/18 10:06:10;;;;;;;22.27;7.97;;;;;;;7.44;100.00;101021.16;6255621;28;20064;-74
2023/10/18 10:09:13;;;;;;;18.63;6.90;;;;;;;7.53;100.00;101022.59;6248095;28;20053;-72
2023/10/18 10:12:19;;;;;;;19.02;7.43;;;;;;;7.67;100.00;101025.56;6240354;28;20060;-74
2023/10/18 10:15:23;;;;;;;18.30;6.78;;;;;;;7.75;100.00;101013.03;6234565;28;20581;-73
2023/10/18 10:18:30;;;;;;;17.98;7.63;;;;;;;7.84;100.00;101015.31;6241952;28;20442;-72
2023/10/18 10:21:34;;;;;;;13.85;6.55;;;;;;;7.99;100.00;101015.66;6253596;28;20176;-73
2023/10/18 10:24:42;;;;;;;16.55;7.07;;;;;;;8.05;100.00;101016.28;6244213;28;20042;-73
2023/10/18 10:27:52;;;;;;;17.30;7.35;;;;;;;8.05;100.00;101000.56;6239006;28;20053;-71
2023/10/18 10:30:53;;;;;;;15.55;6.82;;;;;;;8.13;100.00;101002.91;6245034;28;20042;-72
2023/10/18 10:34:06;;;;;;;14.23;6.45;;;;;;;8.16;100.00;101002.75;6247946;28;20053;-72
2023/10/18 10:37:09;;;;;;;13.35;6.60;;;;;;;8.25;100.00;100998.94;6250622;28;20103;-71
2023/10/18 10:40:19;;;;;;;20.08;6.53;;;;;;;8.32;100.00;100989.94;6236753;28;20057;-72
2023/10/18 10:43:22;;;;;;;16.30;6.15;;;;;;;8.40;100.00;100980.00;6232310;28;20042;-72
2023/10/18 10:46:35;;;;;;;14.55;7.18;;;;;;;8.54;100.00;100974.22;6241512;28;20050;-72
2023/10/18 10:49:47;;;;;;;14.57;6.10;;;;;;;8.61;100.00;100963.41;6240826;28;20049;-72
2023/10/18 10:52:49;;;;;;;13.43;5.15;;;;;;;8.64;100.00;100959.84;6245555;28;20055;-72
2023/10/18 10:55:50;;;;;;;15.18;5.72;;;;;;;8.74;100.00;100953.28;6240827;28;20457;-71
2023/10/18 10:59:03;;;;;;;11.60;5.55;;;;;;;8.82;100.00;100951.19;6242016;28;20058;-72
2023/10/18 11:02:07;;;;;;;16.13;6.43;;;;;;;8.78;100.00;100940.91;6248946;28;20050;-71
2023/10/18 11:05:16;;;;;;;13.88;6.40;;;;;;;8.87;100.00;100933.50;6242008;28;20049;-71
2023/10/18 11:08:19;;;;;;;16.75;6.32;;;;;;;8.88;100.00;100931.72;6250497;28;20148;-72
2023/10/18 11:11:21;;;;;;;11.48;5.47;;;;;;;8.94;100.00;100928.81;6249968;28;20049;-72
2023/10/18 11:14:28;;;;;;;11.05;5.57;;;;;;;9.03;100.00;100925.81;6249753;28;20442;-72
2023/10/18 11:17:33;;;;;;;12.68;5.30;;;;;;;9.14;100.00;100913.09;6246633;28;20057;-72
2023/10/18 11:20:48;;;;;;;16.60;5.68;;;;;;;9.15;100.00;100901.69;6240059;28;20361;-72
2023/10/18 11:23:57;;;;;;;9.80;5.15;;;;;;;9.23;100.00;100900.50;6241980;28;20327;-72
2023/10/18 11:26:58;;;;;;;10.20;4.88;;;;;;;9.19;100.00;100897.16;6241134;28;20054;-72
2023/10/18 11:30:15;;;;;;;13.63;5.30;;;;;;;9.19;100.00;100896.31;6247531;28;20049;-73
2023/10/18 11:33:18;;;;;;;13.10;4.88;;;;;;;9.26;100.00;100882.81;6243199;28;20056;-71
2023/10/18 11:36:20;;;;;;;15.75;6.13;;;;;;;9.25;100.00;100875.88;6241729;28;20054;-72
2023/10/18 11:39:23;;;;;;;11.50;5.32;;;;;;;9.29;100.00;100873.97;6249397;28;20049;-71
2023/10/18 11:42:29;;;;;;;8.85;3.90;;;;;;;9.37;100.00;100867.47;6248796;28;20046;-73
2023/10/18 11:45:32;;;;;;;13.13;5.60;;;;;;;9.38;100.00;100858.66;6247744;28;20046;-73
2023/10/18 11:48:35;;;;;;;11.30;5.32;;;;;;;9.39;100.00;100849.03;6247967;28;20049;-72
2023/10/18 11:51:42;;;;;;;11.40;4.82;;;;;;;9.51;100.00;100853.69;6244441;28;20057;-72
2023/10/18 11:54:45;;;;;;;10.00;4.90;;;;;;;9.61;100.00;100851.50;6246566;28;20057;-74
2023/10/18 11:57:47;;;;;;;12.50;5.80;;;;;;;9.70;100.00;100842.31;6259000;28;20049;-73
2023/10/18 12:00:55;;;;;;;9.05;4.72;;;;;;;9.71;100.00;100826.50;6245910;28;20046;-72
2023/10/18 12:03:58;;;;;;;13.20;5.70;;;;;;;9.89;100.00;100822.97;6243946;28;20072;-72
2023/10/18 12:07:00;;;;;;;11.63;4.70;;;;;;;9.87;100.00;100826.63;6254110;28;20061;-75
2023/10/18 12:10:15;;;;;;;8.23;4.40;;;;;;;9.83;100.00;100811.94;6245491;28;20068;-74
2023/10/18 12:13:20;;;;;;;11.88;5.40;;;;;;;9.77;100.00;100813.09;6249470;28;20117;-73
2023/10/18 12:16:22;;;;;;;10.25;4.65;;;;;;;9.93;100.00;100796.59;6246559;28;20045;-74
2023/10/18 12:19:24;;;;;;;14.60;5.13;;;;;;;9.96;100.00;100804.31;6243743;28;20468;-74
2023/10/18 12:22:25;;;;;;;11.45;5.57;;;;;;;10.01;100.00;100797.06;6245905;28;20053;-74
2023/10/18 12:25:27;;;;;;;10.88;4.88;;;;;;;10.01;100.00;100790.03;6229428;28;20281;-73
2023/10/18 12:28:29;;;;;;;12.98;5.10;;;;;;;9.99;100.00;100798.88;6229103;28;20056;-73
2023/10/18 12:31:38;;;;;;;14.82;4.78;;;;;;;10.04;100.00;100789.03;6244713;28;20054;-73
2023/10/18 12:34:43;;;;;;;8.20;4.50;;;;;;;9.98;100.00;100781.44;6243488;28;20072;-72
2023/10/18 12:37:45;;;;;;;11.90;5.05;;;;;;;10.00;100.00;100776.97;6249406;28;20508;-73
2023/10/18 12:40:54;;;;;;;11.60;4.15;;;;;;;10.04;100.00;100778.53;6232433;28;20076;-73
2023/10/18 12:43:56;;;;;;;8.27;4.43;;;;;;;10.11;100.00;100772.03;6250094;28;20441;-73
2023/10/18 12:47:09;;;;;;;8.85;4.72;;;;;;;10.09;100.00;100768.63;6231173;28;20430;-74
2023/10/18 12:50:10;;;;;;;7.88;3.95;;;;;;;10.12;100.00;100753.56;6228627;28;20045;-74
2023/10/18 12:53:30;;;;;;;11.27;4.93;;;;;;;10.04;100.00;100755.75;6228341;28;20453;-73
2023/10/18 12:56:32;;;;;;;6.97;4.07;;;;;;;10.00;100.00;100756.81;6241941;28;20531;-75
2023/10/18 12:59:39;;;;;;;15.10;4.60;;;;;;;10.06;100.00;100756.50;6253015;28;20381;-74
2023/10/18 13:02:50;;;;;;;8.63;4.32;;;;;;;10.04;100.00;100747.03;6252913;28;20041;-74
2023/10/18 13:05:52;;;;;;;15.07;4.80;;;;;;;10.08;100.00;100746.78;6247776;28;20573;-73
2023/10/18 13:08:56;;;;;;;8.32;4.18;;;;;;;10.16;100.00;100741.97;6249902;28;20049;-74
2023/10/18 13:12:07;;;;;;;8.50;3.92;;;;;;;10.13;100.00;100728.16;6252165;28;20049;-74
2023/10/18 13:15:10;;;;;;;10.00;4.35;;;;;;;10.08;100.00;100717.03;6250412;28;20123;-74
2023/10/18 13:18:13;;;;;;;8.63;3.58;;;;;;;10.09;100.00;100709.09;6245654;28;20077;-73
2023/10/18 13:21:16;;;;;;;10.98;4.35;;;;;;;10.09;100.00;100700.38;6251118;28;20048;-73
2023/10/18 13:24:20;;;;;;;7.70;4.18;;;;;;;10.06;100.00;100692.66;6236254;28;20342;-73
2023/10/18 13:27:28;;;;;;;8.02;4.05;;;;;;;10.12;100.00;100689.69;6227539;28;20050;-73
2023/10/18 13:30:39;;;;;;;9.00;4.57;;;;;;;10.17;100.00;100677.16;6227443;28;20357;-73
2023/10/18 13:33:44;;;;;;;11.60;3.63;;;;;;;10.19;100.00;100664.81;6227277;28;20176;-73
2023/10/18 13:36:45;;;;;;;7.15;3.75;;;;;;;10.24;100.00;100665.44;6227659;28;20077;-72
2023/10/18 13:39:47;;;;;;;8.00;3.88;;;;;;;10.32;100.00;100663.28;6243053;28;20060;-72
2023/10/18 13:42:49;;;;;;;8.57;3.72;;;;;;;10.23;100.00;100653.22;6248325;28;20310;-73
2023/10/18 13:45:58;;;;;;;7.63;3.85;;;;;;;10.24;100.00;100649.69;6239010;28;20349;-73
2023/10/18 13:49:00;;;;;;;8.15;3.80;;;;;;;10.24;100.00;100636.56;6235343;28;20060;-72
2023/10/18 13:52:04;;;;;;;7.90;4.45;;;;;;;10.24;100.00;100633.06;6226824;28;20048;-72
2023/10/18 13:55:06;;;;;;;10.55;3.95;;;;;;;10.24;100.00;100636.56;6241851;28;20357;-73
2023/10/18 13:58:08;;;;;;;7.07;4.20;;;;;;;10.27;100.00;100628.53;6249519;28;20442;-73
2023/10/18 14:01:14;;;;;;;9.65;5.13;;;;;;;10.25;100.00;100633.00;6243101;28;20057;-73
2023/10/18 14:04:24;;;;;;;9.40;4.75;;;;;;;10.29;100.00;100628.44;6243136;28;20050;-72
2023/10/18 14:07:26;;;;;;;12.30;4.22;;;;;;;10.21;100.00;100615.66;6227130;28;20058;-72
2023/10/18 14:10:28;;;;;;;7.25;4.47;;;;;;;10.19;100.00;100607.03;6226357;28;20365;-72
2023/10/18 14:13:29;;;;;;;9.23;4.40;;;;;;;10.20;100.00;100606.09;6234806;28;20046;-73
2023/10/18 14:16:31;;;;;;;8.90;4.10;;;;;;;10.16;100.00;100605.41;6244761;28;20103;-73